Lucas Gonzalez, Argentina
Current Conditions -  °F | °C
As of 10:00 PM on Monday 24 Nov 2014 (Local Time) from SAAR Reporting Station
Clear Clear  
Wind Chill: 66°   Ceiling: Unl
Heat Index: 66°   Visibility: 6mi
Dew Point: 50°   Wind: 5mph
Humidity: 56%   Direction: 160°SSE
Pressure: 29.88"   Gusts: NA
Location:  32.4°S, 59.55°W
Report Text: SAAR 250100Z 16004KT CAVOK 19/10 Q1012
Loading
Personal Weather Stations






























Interactive Weather Map New forecast layout! Learn more

10-Day Weather Forecast

Advertisements
Track Severe Weather on mobile